Time;durP1;ratioP1;P1;durP2;ratioP2;P2;SDS_P1;SDS_P2;PMS_P1;PMS_P2;Temp;Humidity;BMP_temperature;BMP_pressure;BME280_temperature;BME280_humidity;BME280_pressure;Samples;Min_cycle;Max_cycle;Signal;HPM_P1;HPM_P2
2022/01/13 00:01:52;;;;;;;;;;;;;;;-16.41;100.00;101388.73;1693332;84;21815;-68
2022/01/13 00:04:18;;;;;;;22.40;7.07;;;;;;;-16.44;100.00;101398.55;1685173;84;20183;-65
2022/01/13 00:06:45;;;;;;;27.90;9.53;;;;;;;-16.48;100.00;101399.89;1663470;84;21175;-65
2022/01/13 00:09:11;;;;;;;30.20;10.67;;;;;;;-16.51;100.00;101398.37;1663514;86;21576;-65
2022/01/13 00:12:08;;;;;;;30.07;11.30;;;;;;;-16.54;100.00;101389.24;1665714;84;21074;-65
2022/01/13 00:22:24;;;;;;;26.50;10.80;;;;;;;-16.68;100.00;101380.80;1628356;88;21089;-65
2022/01/13 00:24:48;;;;;;;32.90;12.17;;;;;;;-16.74;100.00;101387.07;1628335;87;21116;-66
2022/01/13 00:27:15;;;;;;;38.93;11.60;;;;;;;-16.78;100.00;101403.91;1640555;87;21239;-65
2022/01/13 00:29:44;;;;;;;30.67;11.57;;;;;;;-16.81;100.00;101407.45;1647917;87;21596;-66
2022/01/13 00:32:13;;;;;;;31.63;12.13;;;;;;;-16.87;100.00;101403.10;1648130;87;21083;-66
2022/01/13 00:34:42;;;;;;;35.05;12.58;;;;;;;-16.89;100.00;101405.84;1648310;87;21560;-66
2022/01/13 00:37:08;;;;;;;35.33;12.53;;;;;;;-16.97;100.00;101391.67;1648184;87;21138;-66
2022/01/13 00:39:35;;;;;;;31.50;12.57;;;;;;;-16.93;100.00;101391.19;1648170;87;21205;-68
2022/01/13 00:42:03;;;;;;;24.53;10.77;;;;;;;-16.95;100.00;101392.70;1648008;85;21078;-66
2022/01/13 00:44:35;;;;;;;32.90;11.57;;;;;;;-16.97;100.00;101391.67;1643861;87;21126;-66
2022/01/13 00:47:00;;;;;;;39.77;12.23;;;;;;;-16.98;99.87;101396.18;1631410;87;21107;-66
2022/01/13 00:49:27;;;;;;;38.83;12.27;;;;;;;-17.02;99.91;101389.08;1632023;87;21106;-66
2022/01/13 00:51:54;;;;;;;75.03;25.03;;;;;;;-17.03;99.88;101388.58;1631950;87;21203;-65
2022/01/13 00:54:20;;;;;;;43.93;15.83;;;;;;;-17.05;99.91;101387.55;1631761;87;21079;-65
2022/01/13 00:56:47;;;;;;;33.60;12.23;;;;;;;-17.04;100.00;101381.78;1632383;87;21115;-65
2022/01/13 00:59:14;;;;;;;30.23;11.07;;;;;;;-17.05;100.00;101383.38;1631812;87;21078;-66
2022/01/13 01:01:45;;;;;;;38.97;11.47;;;;;;;-17.03;100.00;101379.76;1632337;86;21097;-65
2022/01/13 01:04:13;;;;;;;33.63;11.57;;;;;;;-17.02;100.00;101379.00;1632025;87;21159;-66
2022/01/13 01:06:40;;;;;;;40.00;12.47;;;;;;;-17.02;100.00;101377.73;1632250;87;21065;-67
2022/01/13 01:09:13;;;;;;;38.37;12.47;;;;;;;-17.00;100.00;101377.16;1632007;87;21540;-67
2022/01/13 01:11:36;;;;;;;30.68;11.43;;;;;;;-16.99;100.00;101375.52;1632565;86;21057;-66
2022/01/13 01:14:06;;;;;;;26.53;10.87;;;;;;;-16.95;100.00;101370.03;1632105;87;21093;-66
2022/01/13 01:16:33;;;;;;;34.37;11.10;;;;;;;-16.93;100.00;101372.28;1632183;87;21158;-67
2022/01/13 01:19:04;;;;;;;28.97;11.27;;;;;;;-16.91;100.00;101373.31;1631970;87;21600;-67
2022/01/13 01:24:14;;;;;;;29.13;11.10;;;;;;;-16.86;100.00;101367.09;1632353;87;21600;-67
2022/01/13 01:26:53;;;;;;;31.57;10.93;;;;;;;-16.80;100.00;101365.49;1599786;89;21555;-67
2022/01/13 01:29:30;;;;;;;32.53;11.70;;;;;;;-16.77;100.00;101364.12;1648614;86;21179;-66
2022/01/13 01:31:55;;;;;;;24.83;10.87;;;;;;;-16.75;100.00;101358.81;1648144;86;21016;-67
2022/01/13 01:36:56;;;;;;;36.37;12.03;;;;;;;-16.71;100.00;101354.57;1648011;87;21051;-64
2022/01/13 01:39:23;;;;;;;26.37;10.53;;;;;;;-16.67;100.00;101362.44;1648211;85;21610;-65
2022/01/13 01:41:53;;;;;;;27.73;11.20;;;;;;;-16.66;100.00;101357.89;1648229;87;21989;-64
2022/01/13 01:44:32;;;;;;;;;;;;;;;-16.64;100.00;101359.80;1650592;87;21068;-65
2022/01/13 01:46:58;;;;;;;28.70;10.00;;;;;;;-16.61;100.00;101366.37;1647996;86;20154;-64
2022/01/13 01:49:26;;;;;;;36.77;12.37;;;;;;;-16.59;100.00;101372.44;1647997;87;21111;-64
2022/01/13 01:51:57;;;;;;;39.03;10.82;;;;;;;-16.52;100.00;101370.10;1648305;87;21158;-65
2022/01/13 01:54:24;;;;;;;33.87;11.50;;;;;;;-16.46;100.00;101366.00;1648255;87;21086;-66
2022/01/13 01:56:51;;;;;;;26.30;10.50;;;;;;;-16.38;100.00;101354.95;1648397;87;21083;-66
2022/01/13 01:59:20;;;;;;;28.47;10.47;;;;;;;-16.33;100.00;101347.06;1648563;87;21044;-66
2022/01/13 02:02:11;;;;;;;24.95;10.78;;;;;;;-16.23;100.00;101347.88;1651090;87;21090;-66
2022/01/13 02:04:39;;;;;;;31.40;10.17;;;;;;;-16.14;100.00;101343.66;1677653;84;21675;-66
2022/01/13 02:07:07;;;;;;;25.07;10.80;;;;;;;-16.06;100.00;101340.15;1691579;84;21245;-65
2022/01/13 02:09:36;;;;;;;23.22;10.50;;;;;;;-16.00;100.00;101338.17;1690823;84;21741;-65
2022/01/13 02:12:08;;;;;;;23.03;8.93;;;;;;;-15.93;100.00;101336.70;1690365;83;21040;-65
2022/01/13 02:14:46;;;;;;;28.10;11.07;;;;;;;-15.82;100.00;101334.20;1690685;83;21140;-65
2022/01/13 02:17:12;;;;;;;26.97;9.17;;;;;;;-15.75;100.00;101331.11;1694828;83;21064;-65
2022/01/13 02:19:41;;;;;;;23.30;10.57;;;;;;;-15.66;100.00;101330.99;1672588;85;21125;-65
2022/01/13 02:22:08;;;;;;;27.20;11.67;;;;;;;-15.59;100.00;101315.61;1659850;86;21129;-65
2022/01/13 02:24:34;;;;;;;31.63;11.87;;;;;;;-15.50;100.00;101326.89;1709154;83;21049;-64
2022/01/13 02:27:03;;;;;;;35.17;12.57;;;;;;;-15.44;100.00;101327.01;1673597;83;21054;-65
2022/01/13 02:29:30;;;;;;;37.80;12.87;;;;;;;-15.35;100.00;101329.83;1656878;86;21112;-67
2022/01/13 02:31:57;;;;;;;34.83;12.43;;;;;;;-15.28;100.00;101322.89;1656581;86;21085;-66
2022/01/13 02:34:23;;;;;;;33.47;12.73;;;;;;;-15.22;100.00;101328.85;1656590;86;21080;-65
2022/01/13 02:36:52;;;;;;;33.33;11.70;;;;;;;-15.15;100.00;101329.88;1671609;83;21011;-66
2022/01/13 02:39:21;;;;;;;26.53;10.33;;;;;;;-15.09;100.00;101324.44;1724060;83;21023;-65
2022/01/13 02:41:47;;;;;;;34.40;11.27;;;;;;;-15.04;100.00;101312.71;1724448;82;21030;-65
2022/01/13 02:44:17;;;;;;;32.63;11.30;;;;;;;-14.97;100.00;101306.88;1724003;83;21139;-65
2022/01/13 02:46:54;;;;;;;31.77;10.30;;;;;;;-14.93;100.00;101313.97;1723997;83;21536;-66
2022/01/13 02:49:13;;;;;;;23.07;7.80;;;;;;;-14.88;100.00;101312.35;1723897;83;21095;-65
2022/01/13 02:51:42;;;;;;;29.23;11.03;;;;;;;-14.84;100.00;101310.95;1724016;83;21809;-65
2022/01/13 02:54:09;;;;;;;21.50;8.77;;;;;;;-14.81;100.00;101308.69;1724800;83;21543;-64
2022/01/13 02:56:36;;;;;;;30.63;10.57;;;;;;;-14.76;100.00;101302.37;1724272;83;21083;-65
2022/01/13 02:59:03;;;;;;;26.87;10.27;;;;;;;-14.71;100.00;101293.89;1724190;83;21063;-64
2022/01/13 03:01:30;;;;;;;32.93;11.37;;;;;;;-14.67;100.00;101294.27;1724108;82;21122;-64
2022/01/13 03:03:57;;;;;;;29.47;10.43;;;;;;;-14.64;100.00;101287.31;1724072;82;21155;-64
2022/01/13 03:06:37;;;;;;;33.03;11.07;;;;;;;-14.63;100.00;101283.66;1724148;83;21551;-64
2022/01/13 03:09:09;;;;;;;30.43;11.33;;;;;;;-14.64;100.00;101279.33;1723694;83;21183;-64
2022/01/13 03:11:37;;;;;;;31.20;11.03;;;;;;;-14.66;100.00;101279.59;1723952;82;21137;-65
2022/01/13 03:14:10;;;;;;;27.30;9.83;;;;;;;-14.64;100.00;101283.52;1714154;83;21080;-65
2022/01/13 03:16:42;;;;;;;26.57;11.00;;;;;;;-14.66;100.00;101273.27;1695422;84;22205;-63
2022/01/13 03:19:10;;;;;;;33.33;11.20;;;;;;;-14.68;100.00;101272.64;1694950;84;21612;-64
2022/01/13 03:21:36;;;;;;;23.80;10.57;;;;;;;-14.72;100.00;101284.16;1695225;84;21125;-64
2022/01/13 03:24:08;;;;;;;25.13;10.83;;;;;;;-14.75;100.00;101292.74;1694931;83;21109;-65
2022/01/13 03:26:33;;;;;;;20.82;9.03;;;;;;;-14.80;100.00;101282.64;1695382;83;21066;-65
2022/01/13 03:31:36;;;;;;;26.87;10.53;;;;;;;-14.89;100.00;101285.67;1695209;84;21074;-64
2022/01/13 03:34:03;;;;;;;22.27;8.20;;;;;;;-14.95;100.00;101283.89;1694943;84;21132;-65
2022/01/13 03:36:30;;;;;;;29.33;10.27;;;;;;;-15.01;100.00;101277.57;1695171;84;21020;-65
2022/01/13 03:38:56;;;;;;;31.27;11.37;;;;;;;-15.05;100.00;101280.59;1695185;84;21014;-65
2022/01/13 03:41:23;;;;;;;30.30;12.20;;;;;;;-15.08;100.00;101289.58;1695080;83;21463;-66
2022/01/13 03:43:54;;;;;;;26.50;10.10;;;;;;;-15.13;100.00;101271.51;1695384;84;21078;-66
2022/01/13 03:46:21;;;;;;;23.70;10.50;;;;;;;-15.16;100.00;101277.55;1696793;84;21188;-66
2022/01/13 03:48:47;;;;;;;30.77;11.43;;;;;;;-15.20;100.00;101285.66;1694973;84;21049;-66
2022/01/13 03:51:14;;;;;;;29.13;10.80;;;;;;;-15.24;100.00;101279.83;1695078;84;21577;-66
2022/01/13 03:54:23;;;;;;;29.57;12.20;;;;;;;-15.26;100.00;101276.28;1695250;84;21073;-65
2022/01/13 03:56:55;;;;;;;43.10;13.20;;;;;;;-15.27;100.00;101277.05;1695251;84;21034;-64
2022/01/13 03:59:47;;;;;;;31.97;12.33;;;;;;;-15.33;100.00;101280.31;1693696;83;21117;-65
2022/01/13 04:02:14;;;;;;;38.23;13.43;;;;;;;-15.36;100.00;101276.28;1695390;84;22095;-64
2022/01/13 04:04:49;;;;;;;42.00;14.23;;;;;;;-15.39;100.00;101273.47;1690311;83;21077;-66
2022/01/13 04:07:22;;;;;;;36.37;12.53;;;;;;;-15.38;100.00;101290.42;1686997;84;21056;-66
2022/01/13 04:09:58;;;;;;;47.80;14.50;;;;;;;-15.40;100.00;101290.66;1685399;84;21117;-66
2022/01/13 04:12:26;;;;;;;33.80;12.83;;;;;;;-15.42;100.00;101295.19;1651315;85;22375;-66
2022/01/13 04:14:58;;;;;;;35.57;12.67;;;;;;;-15.43;100.00;101294.70;1657097;85;21050;-66
2022/01/13 04:17:24;;;;;;;36.00;12.40;;;;;;;-15.45;100.00;101291.15;1656231;86;21081;-66
2022/01/13 04:19:50;;;;;;;33.40;12.73;;;;;;;-15.45;100.00;101294.94;1656101;86;21065;-66
2022/01/13 04:22:17;;;;;;;32.20;12.73;;;;;;;-15.45;100.00;101294.94;1656472;86;21030;-66
2022/01/13 04:24:50;;;;;;;35.30;12.40;;;;;;;-15.46;100.00;101302.02;1679175;83;22465;-66
2022/01/13 04:27:24;;;;;;;33.97;12.60;;;;;;;-15.43;100.00;101288.77;1683925;84;21165;-64
2022/01/13 04:32:38;;;;;;;33.23;12.23;;;;;;;-15.43;100.00;101270.70;1680356;85;21129;-66
2022/01/13 04:35:07;;;;;;;29.83;11.53;;;;;;;-15.40;100.00;101262.49;1680272;85;21129;-65
2022/01/13 04:37:34;;;;;;;31.55;12.45;;;;;;;-15.37;100.00;101261.86;1680443;85;21088;-65
2022/01/13 04:40:00;;;;;;;38.80;13.47;;;;;;;-15.36;100.00;101251.02;1680025;84;21122;-65
2022/01/13 04:42:34;;;;;;;33.00;12.63;;;;;;;-15.35;100.00;101251.52;1662376;86;21092;-65
2022/01/13 04:44:56;;;;;;;39.00;15.58;;;;;;;-15.35;100.00;101245.20;1661934;86;21544;-65
2022/01/13 04:47:23;;;;;;;39.87;14.63;;;;;;;-15.36;100.00;101243.05;1662222;86;21284;-65
2022/01/13 04:49:49;;;;;;;43.47;14.67;;;;;;;-15.37;100.00;101243.80;1661716;86;21147;-65
2022/01/13 04:52:15;;;;;;;25.70;11.20;;;;;;;-15.40;100.00;101223.73;1679350;83;21061;-65
2022/01/13 04:54:44;;;;;;;30.23;11.50;;;;;;;-15.38;100.00;101228.53;1709742;83;21093;-64
2022/01/13 04:57:17;;;;;;;32.00;12.77;;;;;;;-15.40;100.00;101228.78;1709598;83;21132;-64
2022/01/13 04:59:44;;;;;;;28.73;11.03;;;;;;;-15.38;100.00;101227.27;1701769;83;21084;-64
2022/01/13 05:02:11;;;;;;;27.37;11.17;;;;;;;-15.43;100.00;101235.34;1684639;85;21207;-64
2022/01/13 05:04:37;;;;;;;41.37;13.47;;;;;;;-15.43;100.00;101231.94;1684612;83;21068;-65
2022/01/13 05:07:04;;;;;;;33.10;12.67;;;;;;;-15.43;100.00;101239.12;1684402;85;21073;-64
2022/01/13 05:09:32;;;;;;;33.17;11.37;;;;;;;-15.46;100.00;101228.78;1684209;85;21633;-64
2022/01/13 05:11:59;;;;;;;25.97;10.17;;;;;;;-15.47;100.00;101223.20;1686258;84;21072;-65
2022/01/13 05:14:26;;;;;;;51.23;17.07;;;;;;;-15.48;100.00;101221.45;1691967;83;21224;-65
2022/01/13 05:17:45;;;;;;;63.13;17.80;;;;;;;-15.47;100.00;101216.89;1689524;84;21053;-65
2022/01/13 05:19:33;;;;;;;52.20;17.53;;;;;;;-15.50;100.00;101202.75;1684317;84;21605;-65
2022/01/13 05:24:27;;;;;;;45.03;14.87;;;;;;;-15.51;100.00;101204.75;1689978;83;21086;-63
2022/01/13 05:26:53;;;;;;;40.00;15.07;;;;;;;-15.55;100.00;101196.44;1689871;84;21189;-64
2022/01/13 05:29:20;;;;;;;49.00;17.20;;;;;;;-15.58;100.00;101193.63;1689874;84;21064;-65
2022/01/13 05:31:48;;;;;;;50.73;16.73;;;;;;;-15.60;100.00;101180.38;1689552;84;21045;-66
2022/01/13 05:34:16;;;;;;;48.20;17.00;;;;;;;-15.61;100.00;101179.50;1689286;84;21286;-65
2022/01/13 05:36:43;;;;;;;39.70;15.40;;;;;;;-15.62;100.00;101184.02;1689813;84;21093;-65
2022/01/13 05:39:10;;;;;;;38.87;14.33;;;;;;;-15.62;100.00;101181.50;1689388;83;21135;-65
2022/01/13 05:41:38;;;;;;;36.87;13.83;;;;;;;-15.64;100.00;101176.73;1689480;84;21561;-65
2022/01/13 05:44:04;;;;;;;45.47;17.00;;;;;;;-15.61;100.00;101172.31;1689647;84;21045;-65
2022/01/13 05:49:10;;;;;;;40.20;14.63;;;;;;;-15.56;100.00;101166.00;1844907;77;27036;-65
2022/01/13 05:51:37;;;;;;;53.43;16.50;;;;;;;-15.64;100.00;101169.16;1817919;78;21016;-65
2022/01/13 05:54:04;;;;;;;49.87;16.93;;;;;;;-15.64;100.00;101168.77;1812214;78;21104;-66
2022/01/13 05:56:31;;;;;;;66.30;21.50;;;;;;;-15.68;100.00;101170.91;1818434;78;21168;-65
2022/01/13 05:58:58;;;;;;;56.57;19.93;;;;;;;-15.73;100.00;101183.56;1825635;77;21086;-64
2022/01/13 06:01:26;;;;;;;60.93;21.53;;;;;;;-15.78;100.00;101184.79;1814067;77;21018;-68
2022/01/13 06:03:53;;;;;;;64.90;23.13;;;;;;;-15.80;100.00;101189.73;1814448;77;21088;-66
2022/01/13 06:06:20;;;;;;;58.87;21.90;;;;;;;-15.79;100.00;101191.88;1809328;79;21227;-66
2022/01/13 06:08:47;;;;;;;62.77;21.43;;;;;;;-15.80;100.00;101190.08;1826186;77;21386;-65
2022/01/13 06:11:14;;;;;;;73.57;23.07;;;;;;;-15.79;100.00;101184.30;1847741;77;21013;-65
2022/01/13 06:13:40;;;;;;;74.80;23.07;;;;;;;-15.77;100.00;101181.53;1847888;77;21067;-67
2022/01/13 06:16:06;;;;;;;79.93;26.10;;;;;;;-15.73;100.00;101188.61;1842847;77;21115;-65
2022/01/13 06:18:33;;;;;;;71.90;22.93;;;;;;;-15.69;100.00;101183.00;1820591;77;21152;-66
2022/01/13 06:20:59;;;;;;;152.23;42.57;;;;;;;-15.63;100.00;101174.70;1813455;77;21038;-65
2022/01/13 06:23:26;;;;;;;97.50;29.53;;;;;;;-15.53;100.00;101187.31;1812571;77;21010;-66
2022/01/13 06:25:54;;;;;;;97.57;29.23;;;;;;;-15.42;100.00;101184.44;1814301;77;21558;-66
2022/01/13 06:28:20;;;;;;;201.47;53.47;;;;;;;-15.30;100.00;101182.03;1814490;78;21105;-66
2022/01/13 06:30:47;;;;;;;233.23;66.37;;;;;;;-15.21;100.00;101184.06;1815754;79;21811;-65
2022/01/13 06:33:14;;;;;;;125.30;37.10;;;;;;;-15.11;100.00;101191.66;1810917;77;21037;-66
2022/01/13 06:35:41;;;;;;;144.93;42.03;;;;;;;-15.02;100.00;101179.77;1816135;79;21014;-66
2022/01/13 06:38:07;;;;;;;114.60;33.60;;;;;;;-14.92;100.00;101160.30;1815556;79;21101;-66
2022/01/13 06:40:35;;;;;;;100.07;32.23;;;;;;;-14.81;100.00;101155.72;1814331;79;21014;-65
2022/01/13 06:43:01;;;;;;;119.73;35.00;;;;;;;-14.67;100.00;101148.85;1814015;78;21686;-65
2022/01/13 06:45:28;;;;;;;94.63;31.37;;;;;;;-14.52;100.00;101144.47;1846553;77;21027;-63
2022/01/13 06:47:55;;;;;;;137.73;41.87;;;;;;;-14.42;100.00;101131.41;1847429;77;20999;-63
2022/01/13 06:50:21;;;;;;;104.73;31.97;;;;;;;-14.29;100.00;101126.91;1847939;77;21002;-63
2022/01/13 06:52:48;;;;;;;120.70;39.13;;;;;;;-14.18;100.00;101124.83;1847265;77;21089;-65
2022/01/13 06:55:15;;;;;;;112.07;35.07;;;;;;;-14.05;100.00;101118.20;1840396;77;21127;-64
2022/01/13 06:57:42;;;;;;;107.93;33.67;;;;;;;-13.96;100.00;101124.84;1813632;79;21022;-64
2022/01/13 07:00:10;;;;;;;104.73;37.60;;;;;;;-13.87;100.00;101125.94;1813507;79;21577;-64
2022/01/13 07:02:37;;;;;;;102.80;31.60;;;;;;;-13.84;100.00;101118.95;1825319;77;21116;-64
2022/01/13 07:05:05;;;;;;;164.87;49.40;;;;;;;-13.79;100.00;101117.25;1823536;77;21535;-63
2022/01/13 07:07:35;;;;;;;154.30;46.37;;;;;;;-13.72;100.00;101127.86;1826944;77;21080;-64
2022/01/13 07:10:03;;;;;;;158.68;46.58;;;;;;;-13.68;100.00;101104.14;1835679;77;22170;-64
2022/01/13 07:12:30;;;;;;;202.60;58.40;;;;;;;-13.63;100.00;101090.17;1819263;77;21643;-63
2022/01/13 07:14:57;;;;;;;195.27;55.43;;;;;;;-13.58;100.00;101082.52;1837343;77;21558;-63
2022/01/13 07:17:25;;;;;;;192.13;54.73;;;;;;;-13.52;100.00;101089.31;1845865;77;21014;-64
2022/01/13 07:19:52;;;;;;;218.53;61.70;;;;;;;-13.44;100.00;101084.80;1840549;77;21115;-64
2022/01/13 07:22:19;;;;;;;112.87;32.83;;;;;;;-13.38;100.00;101082.73;1832381;77;21545;-63
2022/01/13 07:24:46;;;;;;;161.03;45.43;;;;;;;-13.34;100.00;101080.93;1836385;77;21462;-64
2022/01/13 07:27:13;;;;;;;170.63;48.93;;;;;;;-13.25;100.00;101064.58;1824554;77;21056;-64
2022/01/13 07:29:42;;;;;;;119.47;36.83;;;;;;;-13.19;100.00;101060.84;1811488;77;21061;-64
2022/01/13 07:32:08;;;;;;;95.17;28.33;;;;;;;-13.12;100.00;101050.77;1781504;80;21204;-64
2022/01/13 07:34:35;;;;;;;121.27;39.73;;;;;;;-13.02;100.00;101045.96;1813771;77;21050;-63
2022/01/13 07:37:01;;;;;;;134.57;47.40;;;;;;;-12.93;100.00;101044.08;1821261;77;21124;-64
2022/01/13 07:39:28;;;;;;;105.27;35.80;;;;;;;-12.82;100.00;101038.52;1826971;77;21575;-61
2022/01/13 07:41:55;;;;;;;73.13;24.00;;;;;;;-12.70;100.00;101038.09;1847234;77;21101;-63
2022/01/13 07:44:21;;;;;;;78.67;30.93;;;;;;;-12.63;100.00;101031.41;1846856;77;21096;-62
2022/01/13 07:46:48;;;;;;;85.57;30.10;;;;;;;-12.57;100.00;101014.08;1847190;77;21535;-65
2022/01/13 07:49:14;;;;;;;92.40;32.97;;;;;;;-12.47;100.00;101003.81;1849057;77;21089;-63
2022/01/13 07:51:41;;;;;;;169.77;46.73;;;;;;;-12.41;100.00;100991.04;1850172;77;21023;-65
2022/01/13 07:54:07;;;;;;;127.73;40.20;;;;;;;-12.31;100.00;100987.07;1824012;77;21049;-63
2022/01/13 07:56:34;;;;;;;139.33;43.33;;;;;;;-12.22;100.00;100985.16;1816922;79;21834;-63
2022/01/13 07:59:00;;;;;;;302.30;78.50;;;;;;;-12.13;100.00;100988.31;1844331;77;21233;-63
2022/01/13 08:01:27;;;;;;;270.40;75.33;;;;;;;-12.01;100.00;100984.84;1849794;77;21046;-63
2022/01/13 08:03:54;;;;;;;242.20;69.20;;;;;;;-11.87;100.00;100991.31;1850197;77;21042;-63
2022/01/13 08:06:21;;;;;;;194.30;57.80;;;;;;;-11.72;100.00;101010.48;1850344;77;21113;-64
2022/01/13 08:08:47;;;;;;;267.97;78.23;;;;;;;-11.60;100.00;101006.59;1816244;77;21521;-65
2022/01/13 08:11:14;;;;;;;343.67;99.13;;;;;;;-11.50;100.00;101005.53;1803518;79;21496;-63
2022/01/13 08:13:40;;;;;;;235.50;64.27;;;;;;;-11.38;100.00;101010.56;1803695;79;21554;-63
2022/01/13 08:16:09;;;;;;;212.67;60.50;;;;;;;-11.26;100.00;101002.04;1803793;79;21487;-63
2022/01/13 08:21:23;;;;;;;150.27;45.83;;;;;;;-11.12;100.00;101001.66;1802467;77;21144;-63
2022/01/13 08:23:50;;;;;;;143.13;49.33;;;;;;;-11.02;100.00;100989.11;1823709;77;21050;-62
2022/01/13 08:26:18;;;;;;;129.17;43.80;;;;;;;-10.96;100.00;100983.15;1813505;78;21057;-63
2022/01/13 08:28:45;;;;;;;141.43;46.57;;;;;;;-10.90;100.00;100987.36;1830809;77;21031;-63
2022/01/13 08:31:11;;;;;;;122.77;47.97;;;;;;;-10.83;100.00;100989.50;1837221;77;21243;-64
2022/01/13 08:33:39;;;;;;;232.87;71.33;;;;;;;-10.75;100.00;100980.19;1832323;77;21090;-63
2022/01/13 08:36:06;;;;;;;255.73;74.53;;;;;;;-10.66;100.00;100981.63;1823584;77;21109;-63
2022/01/13 08:38:34;;;;;;;248.47;71.80;;;;;;;-10.57;100.00;100976.22;1829671;77;21053;-63
2022/01/13 08:41:01;;;;;;;299.67;81.03;;;;;;;-10.51;100.00;100970.25;1814433;79;21078;-63
2022/01/13 08:43:28;;;;;;;312.63;81.30;;;;;;;-10.46;100.00;100968.85;1820989;77;21133;-63
2022/01/13 08:45:55;;;;;;;358.00;89.67;;;;;;;-10.38;100.00;100966.36;1822331;77;21202;-64
2022/01/13 08:48:22;;;;;;;349.63;80.20;;;;;;;-10.30;100.00;100951.55;1832874;77;20999;-63
2022/01/13 08:50:48;;;;;;;375.90;85.67;;;;;;;-10.23;100.00;100947.67;1820643;77;21046;-64
2022/01/13 08:53:16;;;;;;;374.90;89.03;;;;;;;-10.21;100.00;100930.81;1835787;77;21011;-63
2022/01/13 08:55:43;;;;;;;283.17;77.03;;;;;;;-10.15;100.00;100926.06;1829491;77;21015;-63
2022/01/13 08:58:09;;;;;;;292.07;75.97;;;;;;;-10.13;100.00;100923.22;1827048;77;21200;-64
2022/01/13 09:00:37;;;;;;;270.10;77.30;;;;;;;-10.09;100.00;100922.61;1830120;77;21003;-63
2022/01/13 09:03:08;;;;;;;237.17;71.90;;;;;;;-10.02;100.00;100919.63;1829468;77;21085;-63
2022/01/13 09:05:36;;;;;;;229.33;70.73;;;;;;;-9.92;100.00;100918.08;1816710;77;21586;-63
2022/01/13 09:08:10;;;;;;;198.03;61.80;;;;;;;-9.79;100.00;100911.16;1848180;77;21030;-64
2022/01/13 09:10:39;;;;;;;168.10;58.33;;;;;;;-9.68;100.00;100897.35;1816764;78;21098;-63
2022/01/13 09:13:14;;;;;;;177.87;55.63;;;;;;;-9.56;100.00;100903.53;1817101;78;21426;-63
2022/01/13 09:15:47;;;;;;;196.97;60.77;;;;;;;-9.45;100.00;100906.28;1817289;78;21019;-63
2022/01/13 09:18:19;;;;;;;201.30;60.20;;;;;;;-9.35;100.00;100903.44;1842224;77;21062;-63
2022/01/13 09:20:45;;;;;;;253.07;79.20;;;;;;;-9.21;100.00;100910.57;1833787;77;21020;-63
2022/01/13 09:23:13;;;;;;;373.83;105.23;;;;;;;-8.92;100.00;100912.16;1817401;78;21160;-64
2022/01/13 09:25:40;;;;;;;264.07;81.67;;;;;;;-8.38;100.00;100894.91;1816604;78;21077;-63
2022/01/13 09:28:08;;;;;;;282.27;88.63;;;;;;;-7.86;100.00;100872.84;1821653;77;21129;-63
2022/01/13 09:30:35;;;;;;;282.47;88.37;;;;;;;-7.57;100.00;100854.58;1807956;77;21058;-63
2022/01/13 09:33:01;;;;;;;249.53;80.57;;;;;;;-7.29;100.00;100847.78;1838564;77;21042;-63
2022/01/13 09:35:27;;;;;;;192.57;68.60;;;;;;;-7.20;100.00;100843.09;1825558;77;21282;-62
2022/01/13 09:37:54;;;;;;;267.63;79.63;;;;;;;-7.12;100.00;100828.97;1825470;77;21066;-63
2022/01/13 09:40:21;;;;;;;258.40;80.37;;;;;;;-7.07;100.00;100812.53;1816737;77;21061;-63
2022/01/13 09:42:47;;;;;;;149.93;54.77;;;;;;;-7.06;100.00;100807.49;1806230;78;21111;-63
2022/01/13 09:45:17;;;;;;;121.83;45.37;;;;;;;-7.05;100.00;100801.55;1816891;78;21549;-64
2022/01/13 09:47:43;;;;;;;123.83;46.20;;;;;;;-7.33;100.00;100815.20;1817003;78;21111;-62
2022/01/13 09:50:13;;;;;;;123.17;46.77;;;;;;;-7.61;100.00;100808.40;1811565;78;21513;-63
2022/01/13 09:52:40;;;;;;;107.50;42.33;;;;;;;-7.73;100.00;100809.48;1787255;80;21044;-62
2022/01/13 09:55:08;;;;;;;118.13;45.87;;;;;;;-7.85;100.00;100799.55;1799587;79;21450;-63
2022/01/13 09:57:35;;;;;;;117.07;44.40;;;;;;;-7.89;100.00;100803.67;1816779;79;21570;-63
2022/01/13 10:00:01;;;;;;;111.90;42.17;;;;;;;-7.93;100.00;100797.92;1783013;79;21560;-63
2022/01/13 10:02:31;;;;;;;106.45;39.23;;;;;;;-7.95;100.00;100786.74;1757150;80;21570;-62
2022/01/13 10:04:57;;;;;;;114.80;42.53;;;;;;;-7.95;100.00;100782.04;1723664;83;21094;-63
2022/01/13 10:07:37;;;;;;;108.83;42.33;;;;;;;-7.94;100.00;100773.55;1746803;80;21023;-63
2022/01/13 10:10:08;;;;;;;119.40;44.03;;;;;;;-7.93;100.00;100757.02;1774956;80;21055;-63
2022/01/13 10:12:39;;;;;;;127.03;47.93;;;;;;;-7.90;100.00;100746.05;1773746;80;21084;-64
2022/01/13 10:18:04;;;;;;;123.63;45.77;;;;;;;-7.86;100.00;100736.05;1754926;81;21066;-63
2022/01/13 10:20:32;;;;;;;108.70;41.97;;;;;;;-7.84;100.00;100730.60;1774033;80;21062;-63
2022/01/13 10:23:09;;;;;;;100.43;39.07;;;;;;;-7.76;100.00;100719.84;1790198;80;21311;-63
2022/01/13 10:25:39;;;;;;;99.70;39.13;;;;;;;-7.69;100.00;100719.32;1779826;80;21114;-62
2022/01/13 10:28:23;;;;;;;100.95;39.23;;;;;;;-7.57;100.00;100728.82;1743709;82;20997;-64
2022/01/13 10:30:52;;;;;;;93.37;35.17;;;;;;;-7.40;100.00;100720.23;1744736;80;21070;-65
2022/01/13 10:33:25;;;;;;;90.73;33.93;;;;;;;-7.20;100.00;100712.55;1756625;80;21060;-64
2022/01/13 10:35:55;;;;;;;85.87;34.63;;;;;;;-7.06;100.00;100711.48;1722058;82;21064;-63
2022/01/13 10:38:22;;;;;;;85.13;34.87;;;;;;;-6.88;100.00;100701.54;1775433;79;21119;-65
2022/01/13 10:40:50;;;;;;;85.50;34.70;;;;;;;-6.75;100.00;100694.84;1782347;79;21052;-64
2022/01/13 10:43:23;;;;;;;99.13;37.17;;;;;;;-6.68;100.00;100700.69;1775613;80;21045;-65
2022/01/13 10:45:56;;;;;;;83.63;33.13;;;;;;;-6.63;100.00;100694.06;1770930;80;21648;-65
2022/01/13 10:48:26;;;;;;;94.67;38.07;;;;;;;-6.57;100.00;100695.61;1754300;81;21163;-64
2022/01/13 10:50:59;;;;;;;213.35;69.60;;;;;;;-6.49;100.00;100694.63;1706748;83;21115;-64
2022/01/13 10:53:29;;;;;;;243.33;78.23;;;;;;;-6.39;100.00;100695.90;1727319;83;21104;-64
2022/01/13 10:56:04;;;;;;;231.57;76.90;;;;;;;-6.24;100.00;100686.23;1723027;82;21160;-65
2022/01/13 10:58:35;;;;;;;190.03;64.47;;;;;;;-6.08;100.00;100668.48;1717628;81;21894;-63
2022/01/13 11:01:03;;;;;;;190.68;56.13;;;;;;;-5.84;100.00;100662.12;1713855;81;21065;-65
2022/01/13 11:03:33;;;;;;;366.20;107.83;;;;;;;-5.54;100.00;100642.26;1718615;81;21128;-64
2022/01/13 11:06:06;;;;;;;390.37;122.37;;;;;;;-5.08;100.00;100629.75;1707198;83;21133;-64
2022/01/13 11:08:41;;;;;;;457.03;136.80;;;;;;;-4.61;100.00;100627.86;1716599;83;21022;-65
2022/01/13 11:11:28;;;;;;;307.33;97.63;;;;;;;-4.04;100.00;100611.20;1728645;83;21102;-64
2022/01/13 11:14:07;;;;;;;271.70;88.10;;;;;;;-3.72;100.00;100604.84;1722431;83;21550;-64
2022/01/13 11:16:30;;;;;;;468.43;150.90;;;;;;;-3.69;100.00;100607.48;1724748;83;21990;-64
2022/01/13 11:18:58;;;;;;;443.77;137.10;;;;;;;-3.56;100.00;100598.84;1719483;82;21093;-63
2022/01/13 11:21:26;;;;;;;407.85;131.22;;;;;;;-3.29;100.00;100576.41;1728929;83;21043;-64
2022/01/13 11:23:53;;;;;;;359.48;116.62;;;;;;;-3.13;100.00;100575.48;1725429;82;21053;-63
2022/01/13 11:26:20;;;;;;;260.17;94.65;;;;;;;-2.98;100.00;100573.31;1725035;82;21077;-64
2022/01/13 11:28:47;;;;;;;356.60;119.75;;;;;;;-2.92;100.00;100564.45;1712428;82;21117;-64
2022/01/13 11:31:13;;;;;;;353.45;110.52;;;;;;;-2.70;100.00;100555.94;1712362;81;21109;-63